Time;durP1;ratioP1;P1;durP2;ratioP2;P2;SDS_P1;SDS_P2;PMS_P1;PMS_P2;Temp;Humidity;BMP_temperature;BMP_pressure;BME280_temperature;BME280_humidity;BME280_pressure;Samples;Min_cycle;Max_cycle;Signal;HPM_P1;HPM_P2
2023/03/11 00:01:28;;;;;;;7.32;3.90;;;0.10;99.90;;;;;;5042687;28;20406;-63
2023/03/11 00:03:53;;;;;;;7.50;1.67;;;0.10;99.90;;;;;;5028953;28;20052;-63
2023/03/11 00:06:19;;;;;;;4.95;2.80;;;0.10;99.90;;;;;;5047336;28;20502;-63
2023/03/11 00:08:44;;;;;;;5.72;2.10;;;0.10;99.90;;;;;;5051884;28;20041;-63
2023/03/11 00:11:10;;;;;;;3.85;2.30;;;0.10;99.90;;;;;;5049445;28;20045;-63
2023/03/11 00:13:36;;;;;;;4.55;2.13;;;0.10;99.90;;;;;;5033690;28;20111;-63
2023/03/11 00:16:02;;;;;;;4.60;1.73;;;0.20;99.90;;;;;;5033429;28;20049;-63
2023/03/11 00:18:30;;;;;;;7.18;1.80;;;0.30;99.90;;;;;;5050133;28;20417;-63
2023/03/11 00:20:56;;;;;;;5.13;2.00;;;0.30;99.90;;;;;;5034724;28;20037;-63
2023/03/11 00:23:23;;;;;;;4.88;1.80;;;0.30;99.90;;;;;;5052143;28;20041;-63
2023/03/11 00:25:49;;;;;;;6.13;2.20;;;0.30;99.90;;;;;;5052257;28;20069;-63
2023/03/11 00:28:15;;;;;;;2.72;1.77;;;0.40;99.90;;;;;;5050240;28;20068;-63
2023/03/11 00:30:42;;;;;;;4.28;2.03;;;0.40;99.90;;;;;;5050941;28;20025;-63
2023/03/11 00:33:09;;;;;;;7.03;1.77;;;0.40;99.90;;;;;;5051005;28;20047;-63
2023/03/11 00:35:35;;;;;;;4.30;1.90;;;0.40;99.90;;;;;;5033683;28;20052;-63
2023/03/11 00:38:04;;;;;;;8.52;2.20;;;0.40;99.90;;;;;;5052111;28;20070;-63
2023/03/11 00:40:32;;;;;;;5.85;1.88;;;0.50;99.90;;;;;;5052958;28;20096;-63
2023/03/11 00:42:58;;;;;;;10.68;2.22;;;0.40;99.90;;;;;;5050986;28;20056;-63
2023/03/11 00:45:24;;;;;;;4.25;2.25;;;0.40;99.90;;;;;;5025730;28;20494;-63
2023/03/11 00:47:51;;;;;;;7.30;1.95;;;0.40;99.90;;;;;;5050198;28;20126;-63
2023/03/11 00:50:20;;;;;;;5.03;2.20;;;0.40;99.90;;;;;;5049800;28;20501;-63
2023/03/11 00:52:47;;;;;;;5.70;2.20;;;0.40;99.90;;;;;;5050982;28;20045;-63
2023/03/11 00:55:16;;;;;;;9.05;2.65;;;0.50;99.90;;;;;;5052709;28;20045;-63
2023/03/11 00:57:42;;;;;;;8.13;1.98;;;0.40;99.90;;;;;;5030380;28;20044;-63
2023/03/11 01:00:10;;;;;;;5.93;1.77;;;0.50;99.90;;;;;;5046835;28;20116;-63
2023/03/11 01:02:37;;;;;;;6.55;1.90;;;0.40;99.90;;;;;;5050867;28;20032;-63
2023/03/11 01:05:04;;;;;;;3.30;1.55;;;0.50;99.90;;;;;;5051892;28;20214;-63
2023/03/11 01:07:30;;;;;;;4.43;1.90;;;0.40;99.90;;;;;;5051758;28;20494;-63
2023/03/11 01:09:55;;;;;;;5.15;1.88;;;0.40;99.90;;;;;;5047440;28;20045;-63
2023/03/11 01:12:21;;;;;;;8.13;1.85;;;0.40;99.90;;;;;;5049888;28;20048;-63
2023/03/11 01:14:46;;;;;;;8.65;1.73;;;0.40;99.90;;;;;;5034668;28;20048;-63
2023/03/11 01:17:12;;;;;;;6.10;2.00;;;0.40;99.90;;;;;;5048443;28;20041;-63
2023/03/11 01:19:38;;;;;;;7.88;2.00;;;0.40;99.90;;;;;;5030878;28;20031;-63
2023/03/11 01:22:03;;;;;;;7.35;2.00;;;0.30;99.90;;;;;;5049863;28;20033;-63
2023/03/11 01:24:29;;;;;;;8.60;2.08;;;0.30;99.90;;;;;;5032258;28;20045;-63
2023/03/11 01:26:54;;;;;;;6.65;2.08;;;0.40;99.90;;;;;;5048581;28;20544;-63
2023/03/11 01:29:20;;;;;;;6.63;1.80;;;0.30;99.90;;;;;;5031402;28;20477;-63
2023/03/11 01:31:45;;;;;;;5.70;1.92;;;0.30;99.90;;;;;;5051084;28;20043;-63
2023/03/11 01:34:11;;;;;;;6.75;2.15;;;0.40;99.90;;;;;;5050157;28;20043;-64
2023/03/11 01:36:37;;;;;;;3.95;1.90;;;0.40;99.90;;;;;;5031871;28;20072;-63
2023/03/11 01:39:03;;;;;;;6.65;2.17;;;0.30;99.90;;;;;;5049235;28;20094;-63
2023/03/11 01:41:28;;;;;;;7.93;1.83;;;0.40;99.90;;;;;;5028652;28;20037;-63
2023/03/11 01:43:54;;;;;;;5.68;1.98;;;0.40;99.90;;;;;;5032845;28;20123;-63
2023/03/11 01:46:21;;;;;;;3.45;1.50;;;0.40;99.90;;;;;;5049242;28;20044;-63
2023/03/11 01:48:52;;;;;;;3.67;1.50;;;0.40;99.90;;;;;;5032145;28;20041;-63
2023/03/11 01:51:36;;;;;;;9.18;2.08;;;0.40;99.90;;;;;;5046341;28;20045;-63
2023/03/11 01:54:09;;;;;;;7.53;1.70;;;0.40;99.90;;;;;;5045160;28;20120;-63
2023/03/11 01:56:35;;;;;;;6.85;1.90;;;0.40;99.90;;;;;;5045844;28;20037;-63
2023/03/11 01:59:01;;;;;;;3.83;1.52;;;0.30;99.90;;;;;;5048486;28;20121;-63
2023/03/11 02:01:26;;;;;;;4.88;1.60;;;0.30;99.90;;;;;;5044084;28;20033;-63
2023/03/11 02:03:53;;;;;;;7.03;2.13;;;0.30;99.90;;;;;;5049627;28;20029;-63
2023/03/11 02:06:21;;;;;;;6.20;1.98;;;0.30;99.90;;;;;;5047973;28;20047;-63
2023/03/11 02:08:48;;;;;;;6.20;2.78;;;0.30;99.90;;;;;;5046992;28;20049;-63
2023/03/11 02:11:26;;;;;;;4.18;1.45;;;0.30;99.90;;;;;;5046003;28;20791;-63
2023/03/11 02:13:55;;;;;;;3.72;1.88;;;0.30;99.90;;;;;;5044651;28;20041;-63
2023/03/11 02:16:20;;;;;;;4.38;1.50;;;0.30;99.90;;;;;;5048394;28;20041;-63
2023/03/11 02:18:46;;;;;;;2.97;1.70;;;0.30;99.90;;;;;;5047540;28;20501;-63
2023/03/11 02:21:25;;;;;;;6.05;1.90;;;0.30;99.90;;;;;;5045215;28;20571;-63
2023/03/11 02:23:57;;;;;;;6.20;1.63;;;0.40;99.90;;;;;;5042070;28;20049;-63
2023/03/11 02:26:29;;;;;;;4.82;1.85;;;0.40;99.90;;;;;;5043265;28;20052;-63
2023/03/11 02:28:56;;;;;;;;;;;0.40;99.90;;;;;;5044782;28;20049;-63
2023/03/11 02:31:24;;;;;;;4.40;2.25;;;0.40;99.90;;;;;;5044731;28;19916;-63
2023/03/11 02:33:53;;;;;;;7.82;2.00;;;0.40;99.90;;;;;;5047371;28;20136;-63
2023/03/11 02:36:35;;;;;;;3.20;1.40;;;0.30;99.90;;;;;;5050612;28;20402;-63
2023/03/11 02:39:02;;;;;;;8.43;1.40;;;0.30;99.90;;;;;;5052542;28;20040;-63
2023/03/11 02:41:29;;;;;;;6.05;1.63;;;0.30;99.90;;;;;;5035110;28;20048;-63
2023/03/11 02:43:55;;;;;;;5.03;1.45;;;0.30;99.90;;;;;;5055037;28;20394;-63
2023/03/11 02:46:21;;;;;;;5.55;1.70;;;0.30;99.90;;;;;;5052193;28;20041;-63
2023/03/11 02:48:47;;;;;;;5.40;1.83;;;0.30;99.90;;;;;;5054360;28;20144;-63
2023/03/11 02:51:13;;;;;;;3.83;1.70;;;0.30;99.90;;;;;;5052159;28;20037;-63
2023/03/11 02:53:47;;;;;;;6.50;1.88;;;0.30;99.90;;;;;;5054080;28;20382;-63
2023/03/11 02:56:12;;;;;;;3.67;1.48;;;0.30;99.90;;;;;;5053915;28;20494;-63
2023/03/11 02:58:38;;;;;;;7.28;1.45;;;0.20;99.90;;;;;;5052826;28;20032;-63
2023/03/11 03:01:03;;;;;;;4.47;1.50;;;0.20;99.90;;;;;;5045161;28;20038;-63
2023/03/11 03:03:29;;;;;;;4.75;1.65;;;0.20;99.90;;;;;;5050990;28;20044;-63
2023/03/11 03:05:54;;;;;;;5.05;1.85;;;0.20;99.90;;;;;;5053112;28;20033;-63
2023/03/11 03:08:20;;;;;;;5.80;1.88;;;0.20;99.90;;;;;;5055064;28;20119;-63
2023/03/11 03:10:46;;;;;;;4.05;2.05;;;0.20;99.90;;;;;;5052829;28;20035;-63
2023/03/11 03:13:11;;;;;;;4.22;1.90;;;0.10;99.90;;;;;;5047787;28;20041;-63
2023/03/11 03:15:37;;;;;;;5.03;1.80;;;0.10;99.90;;;;;;5033980;28;20037;-63
2023/03/11 03:18:03;;;;;;;4.82;1.70;;;0.00;99.90;;;;;;5053892;28;20041;-63
2023/03/11 03:20:28;;;;;;;4.22;1.50;;;-0.10;99.90;;;;;;5053735;28;20121;-63
2023/03/11 03:22:54;;;;;;;5.97;1.90;;;-0.10;99.90;;;;;;5053298;28;20119;-63
2023/03/11 03:25:20;;;;;;;4.80;1.40;;;-0.20;99.90;;;;;;5051700;28;20390;-63
2023/03/11 03:27:45;;;;;;;5.30;1.70;;;-0.30;99.90;;;;;;5053738;28;20037;-63
2023/03/11 03:30:11;;;;;;;4.40;1.23;;;-0.30;99.90;;;;;;5050688;28;20041;-63
2023/03/11 03:32:37;;;;;;;2.25;1.30;;;-0.40;99.90;;;;;;5053741;28;20068;-63
2023/03/11 03:35:03;;;;;;;5.10;1.48;;;-0.40;99.90;;;;;;5054257;28;20044;-63
2023/03/11 03:37:33;;;;;;;3.67;1.48;;;-0.50;99.90;;;;;;5053418;28;20047;-63
2023/03/11 03:39:59;;;;;;;3.15;1.10;;;-0.50;99.90;;;;;;5051925;28;20067;-63
2023/03/11 03:42:24;;;;;;;3.53;1.30;;;-0.50;99.90;;;;;;5050254;28;20045;-63
2023/03/11 03:44:53;;;;;;;2.85;1.35;;;-0.60;99.90;;;;;;5051622;28;20514;-63
2023/03/11 03:47:19;;;;;;;2.60;1.27;;;-0.70;99.90;;;;;;5053121;28;20040;-63
2023/03/11 03:49:44;;;;;;;3.47;1.20;;;-0.70;99.90;;;;;;5053140;28;20043;-63
2023/03/11 03:52:10;;;;;;;1.30;1.20;;;-0.70;99.90;;;;;;5052058;28;20123;-63
2023/03/11 03:57:09;;;;;;;3.17;1.58;;;-0.70;99.90;;;;;;5066098;28;20401;-62
2023/03/11 03:59:34;;;;;;;3.70;1.30;;;-0.70;99.90;;;;;;5071749;28;20033;-62
2023/03/11 04:02:00;;;;;;;3.45;1.40;;;-0.70;99.90;;;;;;5053963;28;20047;-63
2023/03/11 04:04:26;;;;;;;3.50;1.15;;;-0.70;99.90;;;;;;5054706;28;20036;-62
2023/03/11 04:06:51;;;;;;;3.25;1.25;;;-0.70;99.90;;;;;;5068944;28;20490;-63
2023/03/11 04:09:18;;;;;;;5.13;1.50;;;-0.70;99.90;;;;;;5068981;28;20068;-63
2023/03/11 04:11:43;;;;;;;3.28;1.27;;;-0.80;99.90;;;;;;5053703;28;20053;-63
2023/03/11 04:14:09;;;;;;;3.35;1.17;;;-0.80;99.90;;;;;;5068940;28;20039;-63
2023/03/11 04:16:35;;;;;;;3.03;1.35;;;-0.90;99.90;;;;;;5070685;28;20044;-63
2023/03/11 04:19:00;;;;;;;3.28;1.30;;;-0.90;99.90;;;;;;5070568;28;20153;-63
2023/03/11 04:21:26;;;;;;;2.75;1.50;;;-1.00;99.90;;;;;;5070994;28;20032;-63
2023/03/11 04:23:51;;;;;;;3.20;1.27;;;-1.00;99.90;;;;;;5064851;28;20420;-63
2023/03/11 04:26:17;;;;;;;3.55;1.52;;;-1.00;99.90;;;;;;5070341;28;20048;-63
2023/03/11 04:28:42;;;;;;;2.95;1.40;;;-1.00;99.90;;;;;;5072296;28;20032;-63
2023/03/11 04:31:08;;;;;;;4.80;1.30;;;-1.10;99.90;;;;;;5072814;28;20059;-63
2023/03/11 04:33:33;;;;;;;5.43;1.50;;;-1.10;99.90;;;;;;5073348;28;20076;-64
2023/03/11 04:36:03;;;;;;;3.05;1.23;;;-1.10;99.90;;;;;;5071139;28;20036;-63
2023/03/11 04:38:28;;;;;;;3.92;1.30;;;-1.10;99.90;;;;;;5070322;28;20527;-63
2023/03/11 04:41:00;;;;;;;6.90;1.60;;;-1.20;99.90;;;;;;5068769;28;20041;-63
2023/03/11 04:43:25;;;;;;;4.35;1.60;;;-1.20;99.90;;;;;;5072266;28;20036;-63
2023/03/11 04:45:51;;;;;;;3.90;1.58;;;-1.20;99.90;;;;;;5072472;28;20120;-63
2023/03/11 04:48:16;;;;;;;1.98;1.25;;;-1.20;99.90;;;;;;5064308;28;20041;-63
2023/03/11 04:50:42;;;;;;;4.03;1.67;;;-1.30;99.90;;;;;;5065109;28;20033;-63
2023/03/11 04:53:07;;;;;;;2.80;1.17;;;-1.30;99.90;;;;;;5071001;28;20041;-63
2023/03/11 04:55:33;;;;;;;5.70;1.70;;;-1.30;99.90;;;;;;5063133;28;20387;-63
2023/03/11 04:57:58;;;;;;;3.05;1.58;;;-1.30;99.90;;;;;;5072014;28;20496;-63
2023/03/11 05:00:24;;;;;;;2.42;1.50;;;-1.40;99.90;;;;;;5067081;28;20040;-63
2023/03/11 05:02:50;;;;;;;2.95;1.38;;;-1.40;99.90;;;;;;5068401;28;20044;-63
2023/03/11 05:05:17;;;;;;;3.42;1.58;;;-1.40;99.90;;;;;;5067421;28;20033;-63
2023/03/11 05:07:43;;;;;;;5.65;1.40;;;-1.40;99.90;;;;;;5063431;28;20116;-63
2023/03/11 05:10:09;;;;;;;2.10;1.20;;;-1.50;99.90;;;;;;5051100;28;20131;-64
2023/03/11 05:12:34;;;;;;;2.90;1.42;;;-1.50;99.90;;;;;;5071817;28;20055;-64
2023/03/11 05:15:00;;;;;;;3.75;1.85;;;-1.50;99.90;;;;;;5070447;28;20040;-64
2023/03/11 05:17:25;;;;;;;6.07;1.45;;;-1.50;99.90;;;;;;5068687;28;20049;-64
2023/03/11 05:19:55;;;;;;;3.67;1.48;;;-1.60;99.90;;;;;;5069328;28;20073;-64
2023/03/11 05:22:21;;;;;;;3.33;1.75;;;-1.60;99.90;;;;;;5070311;28;20037;-64
2023/03/11 05:24:47;;;;;;;3.08;1.55;;;-1.60;99.90;;;;;;5069044;28;20041;-64
2023/03/11 05:27:16;;;;;;;5.30;1.45;;;-1.70;99.90;;;;;;5054094;28;20051;-64
2023/03/11 05:29:43;;;;;;;4.53;1.58;;;-1.70;99.90;;;;;;5070031;28;20754;-64
2023/03/11 05:32:09;;;;;;;5.70;1.60;;;-1.70;99.90;;;;;;5053371;28;20406;-64
2023/03/11 05:34:34;;;;;;;6.65;1.80;;;-1.70;99.90;;;;;;5052758;28;20040;-64
2023/03/11 05:37:00;;;;;;;2.88;1.40;;;-1.70;99.90;;;;;;5062697;28;20042;-64
2023/03/11 05:39:26;;;;;;;5.55;1.73;;;-1.70;99.90;;;;;;5069652;28;20062;-64
2023/03/11 05:41:51;;;;;;;3.45;1.55;;;-1.80;99.90;;;;;;5069710;28;20079;-65
2023/03/11 05:44:17;;;;;;;3.47;1.48;;;-1.80;99.90;;;;;;5071537;28;20041;-64
2023/03/11 05:46:43;;;;;;;3.10;1.60;;;-1.80;99.90;;;;;;5069259;28;20120;-64
2023/03/11 05:49:08;;;;;;;4.55;1.58;;;-1.80;99.90;;;;;;5051473;28;20482;-65
2023/03/11 05:51:35;;;;;;;2.45;1.30;;;-1.70;99.90;;;;;;5070190;28;20037;-64
2023/03/11 05:54:00;;;;;;;5.25;1.65;;;-1.80;99.90;;;;;;5069861;28;20037;-65
2023/03/11 05:56:26;;;;;;;4.93;1.90;;;-1.80;99.90;;;;;;5048191;28;20048;-65
2023/03/11 05:58:52;;;;;;;5.15;1.50;;;-1.80;99.90;;;;;;5071724;28;20060;-65
2023/03/11 06:01:19;;;;;;;2.83;1.40;;;-1.80;99.90;;;;;;5069612;28;20052;-65
2023/03/11 06:03:45;;;;;;;3.92;1.75;;;-1.80;99.90;;;;;;5049913;28;20498;-65
2023/03/11 06:06:12;;;;;;;4.03;1.60;;;-1.90;99.90;;;;;;5062888;28;20082;-65
2023/03/11 06:08:38;;;;;;;4.80;1.70;;;-1.80;99.90;;;;;;5034146;28;20036;-65
2023/03/11 06:11:09;;;;;;;3.85;1.88;;;-1.80;99.90;;;;;;5062548;28;20036;-65
2023/03/11 06:13:36;;;;;;;4.68;1.88;;;-1.80;99.90;;;;;;5050025;28;20059;-65
2023/03/11 06:16:02;;;;;;;3.60;1.50;;;-1.90;99.90;;;;;;5067998;28;20047;-65
2023/03/11 06:18:27;;;;;;;5.28;1.67;;;-1.90;99.90;;;;;;5061147;28;20047;-65
2023/03/11 06:20:56;;;;;;;1.85;1.50;;;-1.90;99.90;;;;;;5037120;28;20037;-65
2023/03/11 06:23:23;;;;;;;3.70;1.70;;;-1.90;99.90;;;;;;5051131;28;20052;-65
2023/03/11 06:26:00;;;;;;;5.38;1.90;;;-1.90;99.90;;;;;;5052454;28;20052;-65
2023/03/11 06:28:26;;;;;;;3.67;1.90;;;-1.80;99.90;;;;;;5069312;28;20028;-65
2023/03/11 06:30:55;;;;;;;1.60;1.50;;;-1.80;99.90;;;;;;5051641;28;20029;-65
2023/03/11 06:33:22;;;;;;;4.85;2.20;;;-1.80;99.90;;;;;;5071557;28;20036;-65
2023/03/11 06:35:59;;;;;;;5.50;2.33;;;-1.80;99.90;;;;;;5052142;28;20040;-65
2023/03/11 06:38:25;;;;;;;3.95;2.10;;;-1.80;99.90;;;;;;5051935;28;20044;-65
2023/03/11 06:40:51;;;;;;;5.00;1.63;;;-1.70;99.90;;;;;;5068329;28;20036;-65
2023/03/11 06:43:17;;;;;;;5.78;2.05;;;-1.70;99.90;;;;;;5052832;28;20046;-65
2023/03/11 06:45:42;;;;;;;4.13;1.75;;;-1.70;99.90;;;;;;5052339;28;20042;-65
2023/03/11 06:48:08;;;;;;;2.08;1.83;;;-1.70;99.90;;;;;;5069371;28;20493;-65
2023/03/11 06:50:33;;;;;;;5.00;2.05;;;-1.70;99.90;;;;;;5066841;28;20098;-65
2023/03/11 06:53:00;;;;;;;6.22;2.08;;;-1.70;99.90;;;;;;5069970;28;20037;-65
2023/03/11 06:55:26;;;;;;;4.68;1.75;;;-1.70;99.90;;;;;;5069653;28;20054;-65
2023/03/11 06:57:51;;;;;;;4.65;2.30;;;-1.60;99.90;;;;;;5069846;28;20127;-65
2023/03/11 07:00:17;;;;;;;7.85;1.73;;;-1.60;99.90;;;;;;5052638;28;20036;-65
2023/03/11 07:02:43;;;;;;;4.97;1.70;;;-1.60;99.90;;;;;;5067349;28;20028;-65
2023/03/11 07:05:09;;;;;;;4.47;1.65;;;-1.50;99.90;;;;;;5070337;28;20055;-65
2023/03/11 07:07:34;;;;;;;5.57;1.70;;;-1.50;99.90;;;;;;5062054;28;20179;-65
2023/03/11 07:10:00;;;;;;;5.65;1.63;;;-1.50;99.90;;;;;;5064482;28;20056;-65
2023/03/11 07:12:25;;;;;;;2.20;1.70;;;-1.40;99.90;;;;;;5064176;28;20037;-65
2023/03/11 07:14:56;;;;;;;3.20;1.95;;;-1.40;99.90;;;;;;5067260;28;20036;-65
2023/03/11 07:17:21;;;;;;;3.53;2.10;;;-1.30;99.90;;;;;;5068149;28;20063;-65
2023/03/11 07:19:47;;;;;;;4.47;2.10;;;-1.30;99.90;;;;;;5065428;28;20494;-65
2023/03/11 07:22:13;;;;;;;4.38;1.88;;;-1.20;99.90;;;;;;5065221;28;20037;-65
2023/03/11 07:24:39;;;;;;;4.95;1.80;;;-1.20;99.90;;;;;;5047180;28;20228;-65
2023/03/11 07:27:05;;;;;;;3.25;2.00;;;-1.10;99.90;;;;;;5066141;28;20049;-66
2023/03/11 07:29:30;;;;;;;3.88;1.77;;;-1.10;99.90;;;;;;5070151;28;20043;-66
2023/03/11 07:31:56;;;;;;;3.05;1.80;;;-1.00;99.90;;;;;;5073442;28;20409;-66
2023/03/11 07:34:21;;;;;;;4.97;1.75;;;-0.90;99.90;;;;;;5070613;28;20036;-66
2023/03/11 07:36:47;;;;;;;5.80;2.00;;;-0.90;99.90;;;;;;5053279;28;20452;-66
2023/03/11 07:39:16;;;;;;;3.47;1.85;;;-0.80;99.90;;;;;;5071666;28;20031;-65
2023/03/11 07:41:41;;;;;;;3.92;1.88;;;-0.70;99.90;;;;;;5052855;28;20044;-66
2023/03/11 07:44:10;;;;;;;4.35;2.00;;;-0.70;99.90;;;;;;5069180;28;20059;-66
2023/03/11 07:46:35;;;;;;;6.47;2.08;;;-0.60;99.90;;;;;;5051805;28;20033;-66
2023/03/11 07:49:02;;;;;;;2.47;1.63;;;-0.50;99.90;;;;;;5072985;28;20604;-66
2023/03/11 07:51:30;;;;;;;1.95;1.67;;;-0.40;99.90;;;;;;5071805;28;20076;-66
2023/03/11 07:53:57;;;;;;;3.60;1.70;;;-0.20;99.90;;;;;;5053750;28;20577;-66
2023/03/11 07:56:25;;;;;;;3.53;1.77;;;-0.10;99.90;;;;;;5070839;28;20043;-66
2023/03/11 07:58:51;;;;;;;6.68;1.80;;;0.10;99.90;;;;;;5073001;28;20472;-66
2023/03/11 08:01:20;;;;;;;8.82;2.35;;;0.30;99.90;;;;;;5071398;28;20094;-66
2023/03/11 08:03:48;;;;;;;4.60;1.80;;;0.40;99.90;;;;;;5072524;28;20033;-65
2023/03/11 08:06:23;;;;;;;3.95;1.90;;;0.40;99.90;;;;;;5049470;28;20393;-66
2023/03/11 08:08:50;;;;;;;6.43;2.03;;;0.50;99.90;;;;;;5066810;28;20525;-66
2023/03/11 08:11:17;;;;;;;4.47;1.80;;;0.60;99.90;;;;;;5073507;28;20044;-66
2023/03/11 08:13:43;;;;;;;6.13;2.00;;;0.60;99.90;;;;;;5073418;28;20532;-66
2023/03/11 08:16:11;;;;;;;4.32;1.45;;;0.70;99.90;;;;;;5052647;28;20048;-66
2023/03/11 08:18:37;;;;;;;3.63;1.65;;;0.80;99.90;;;;;;5054800;28;20042;-65
2023/03/11 08:21:07;;;;;;;3.58;1.70;;;0.90;99.90;;;;;;5072794;28;20506;-65
2023/03/11 08:23:33;;;;;;;3.17;1.57;;;1.00;99.90;;;;;;5072039;28;20037;-65
2023/03/11 08:26:03;;;;;;;5.10;2.13;;;1.20;99.90;;;;;;5049424;28;21014;-65
2023/03/11 08:28:29;;;;;;;10.73;2.08;;;1.30;99.90;;;;;;5052136;28;20040;-65
2023/03/11 08:30:55;;;;;;;2.65;1.50;;;1.40;99.90;;;;;;5072891;28;20037;-65
2023/03/11 08:33:20;;;;;;;3.17;1.83;;;1.50;99.90;;;;;;5054281;28;20465;-65
2023/03/11 08:35:46;;;;;;;4.50;1.63;;;1.70;99.90;;;;;;5069433;28;20054;-64
2023/03/11 08:38:11;;;;;;;3.42;1.60;;;1.80;99.90;;;;;;5069600;28;20067;-64
2023/03/11 08:40:37;;;;;;;6.22;1.65;;;2.00;99.90;;;;;;5054795;28;20041;-64
2023/03/11 08:43:02;;;;;;;2.65;1.70;;;2.10;99.90;;;;;;5069816;28;20067;-64
2023/03/11 08:45:28;;;;;;;4.95;1.58;;;2.10;99.90;;;;;;5053238;28;20036;-64
2023/03/11 08:47:54;;;;;;;5.78;1.80;;;2.30;99.90;;;;;;5071569;28;20083;-64
2023/03/11 08:50:19;;;;;;;2.80;1.38;;;2.40;99.90;;;;;;5071059;28;20036;-64
2023/03/11 08:52:45;;;;;;;4.32;1.52;;;2.40;99.90;;;;;;5070590;28;20165;-64
2023/03/11 08:55:15;;;;;;;5.75;1.70;;;2.60;99.90;;;;;;5068012;28;20040;-65
2023/03/11 08:57:41;;;;;;;4.43;1.48;;;2.70;99.90;;;;;;5067592;28;20044;-64
2023/03/11 09:00:08;;;;;;;2.13;1.40;;;2.80;99.90;;;;;;5068290;28;20382;-64
2023/03/11 09:02:33;;;;;;;4.22;1.63;;;2.90;99.90;;;;;;5051991;28;20062;-64
2023/03/11 09:04:59;;;;;;;4.53;1.63;;;3.00;99.90;;;;;;5052741;28;20111;-64
2023/03/11 09:07:25;;;;;;;1.88;1.45;;;3.10;99.90;;;;;;5052054;28;20036;-63
2023/03/11 09:10:38;;;;;;;2.50;1.58;;;3.20;99.90;;;;;;5052011;28;20041;-64
2023/03/11 09:13:03;;;;;;;2.88;1.70;;;3.30;99.90;;;;;;5030211;28;20052;-64
2023/03/11 09:15:29;;;;;;;3.53;1.90;;;3.50;99.90;;;;;;5063082;28;20037;-63
2023/03/11 09:17:55;;;;;;;5.68;2.15;;;3.50;99.90;;;;;;5052995;28;20124;-64
2023/03/11 09:20:21;;;;;;;2.72;1.52;;;3.60;99.90;;;;;;5072282;28;20448;-64
2023/03/11 09:22:47;;;;;;;4.05;1.70;;;3.70;99.90;;;;;;5053837;28;20036;-63
2023/03/11 09:25:13;;;;;;;3.75;1.48;;;3.80;99.90;;;;;;5070550;28;20089;-63
2023/03/11 09:27:40;;;;;;;4.03;1.75;;;3.80;99.90;;;;;;5069659;28;20108;-63
2023/03/11 09:30:06;;;;;;;6.55;1.90;;;3.90;99.90;;;;;;5045781;28;20040;-63
2023/03/11 09:32:32;;;;;;;5.07;1.58;;;3.90;99.90;;;;;;5067479;28;20569;-63
2023/03/11 09:34:59;;;;;;;7.70;1.88;;;4.00;99.90;;;;;;5065543;28;20036;-63
2023/03/11 09:37:24;;;;;;;3.45;1.48;;;4.10;99.90;;;;;;5069121;28;20165;-62
2023/03/11 09:39:50;;;;;;;6.40;1.77;;;4.20;99.90;;;;;;5070774;28;20508;-62
2023/03/11 09:42:21;;;;;;;3.00;1.38;;;4.20;99.90;;;;;;5071606;28;20448;-62
2023/03/11 09:44:53;;;;;;;;;;;4.30;99.90;;;;;;5071395;28;20032;-63
2023/03/11 09:47:35;;;;;;;5.18;2.05;;;4.30;99.90;;;;;;5072121;28;19916;-62
2023/03/11 09:50:24;;;;;;;4.03;1.70;;;4.30;99.90;;;;;;5070649;28;20037;-62
2023/03/11 09:52:50;;;;;;;6.65;2.35;;;4.40;99.90;;;;;;5067615;28;20048;-63
2023/03/11 09:55:44;;;;;;;6.40;2.05;;;4.40;99.90;;;;;;5082498;22;20032;-64
2023/03/11 09:58:25;;;;;;;3.45;2.22;;;4.40;99.90;;;;;;5046141;28;20528;-63
2023/03/11 10:00:51;;;;;;;5.93;1.60;;;4.40;99.90;;;;;;5029059;28;20116;-63
2023/03/11 10:03:33;;;;;;;5.20;1.88;;;4.50;99.90;;;;;;5045114;28;20104;-63
2023/03/11 10:06:20;;;;;;;4.53;1.90;;;4.50;99.90;;;;;;5049205;28;20118;-63
2023/03/11 10:09:06;;;;;;;3.47;1.85;;;4.60;99.90;;;;;;5030914;28;20046;-63
2023/03/11 10:11:55;;;;;;;5.40;2.00;;;4.70;99.90;;;;;;4990741;28;20060;-63
2023/03/11 10:14:46;;;;;;;2.75;1.27;;;4.80;99.90;;;;;;5037515;28;20069;-63
2023/03/11 10:17:21;;;;;;;;;;;4.80;99.90;;;;;;5035462;28;20069;-64
2023/03/11 10:20:03;;;;;;;4.82;1.30;;;4.80;99.90;;;;;;5031854;28;20334;-64
2023/03/11 10:22:59;;;;;;;8.18;1.77;;;4.90;99.90;;;;;;5031699;28;20115;-63
2023/03/11 10:25:39;;;;;;;7.82;1.48;;;4.90;99.90;;;;;;5031751;28;20038;-64
2023/03/11 10:28:15;;;;;;;2.58;1.50;;;5.00;99.90;;;;;;5029314;28;20406;-63
2023/03/11 10:31:00;;;;;;;3.88;1.20;;;5.10;99.90;;;;;;5038204;28;20514;-64
2023/03/11 10:33:42;;;;;;;4.85;1.70;;;5.10;99.90;;;;;;5033206;28;20100;-64
2023/03/11 10:36:17;;;;;;;6.57;1.50;;;5.00;99.90;;;;;;5023561;28;20450;-64
2023/03/11 10:38:46;;;;;;;5.38;1.52;;;5.00;99.90;;;;;;5030976;28;20038;-63
2023/03/11 10:41:30;;;;;;;3.65;1.40;;;5.10;99.90;;;;;;5035791;28;20486;-64
2023/03/11 10:43:59;;;;;;;3.55;1.35;;;5.10;99.90;;;;;;5028150;28;20029;-64
2023/03/11 10:46:27;;;;;;;3.28;1.23;;;5.10;99.90;;;;;;5026076;28;20034;-65
2023/03/11 10:48:53;;;;;;;3.80;1.10;;;5.20;99.90;;;;;;5016954;28;20478;-64
2023/03/11 10:51:30;;;;;;;3.47;1.10;;;5.20;99.90;;;;;;5023215;28;20532;-65
2023/03/11 10:53:58;;;;;;;2.00;1.30;;;5.20;99.90;;;;;;5027236;28;20069;-65
2023/03/11 10:56:32;;;;;;;4.00;1.30;;;5.20;99.90;;;;;;5020527;28;20124;-65
2023/03/11 10:58:59;;;;;;;3.25;1.13;;;5.30;99.90;;;;;;5027369;28;20033;-65
2023/03/11 11:01:27;;;;;;;7.28;1.40;;;5.20;99.90;;;;;;5031666;28;20033;-66
2023/03/11 11:03:55;;;;;;;4.93;1.25;;;5.30;99.90;;;;;;5027592;28;20439;-65
2023/03/11 11:06:25;;;;;;;6.55;1.70;;;5.30;99.90;;;;;;5050833;28;20093;-65
2023/03/11 11:09:21;;;;;;;4.05;1.42;;;5.40;99.90;;;;;;5035211;28;20490;-65
2023/03/11 11:12:19;;;;;;;3.85;1.25;;;5.40;99.90;;;;;;5041773;28;21274;-66
2023/03/11 11:14:50;;;;;;;4.35;1.30;;;5.50;99.90;;;;;;5025182;28;20627;-65
2023/03/11 11:17:22;;;;;;;4.45;1.40;;;5.50;99.90;;;;;;5035011;28;20033;-65
2023/03/11 11:19:49;;;;;;;4.75;1.38;;;5.60;99.90;;;;;;5030351;28;20117;-65
2023/03/11 11:22:17;;;;;;;5.10;1.25;;;5.60;99.90;;;;;;5008598;28;20038;-66
2023/03/11 11:24:45;;;;;;;3.05;1.35;;;5.60;99.90;;;;;;5033736;28;20040;-66
2023/03/11 11:27:25;;;;;;;6.60;1.63;;;5.60;99.90;;;;;;5040890;28;20465;-65
2023/03/11 11:30:16;;;;;;;4.72;1.40;;;5.70;99.90;;;;;;5031625;28;20038;-65
2023/03/11 11:32:42;;;;;;;4.47;1.23;;;5.70;99.90;;;;;;5032326;28;20034;-65
2023/03/11 11:35:13;;;;;;;2.70;1.10;;;5.80;99.90;;;;;;5029317;28;20040;-65
2023/03/11 11:37:47;;;;;;;6.38;1.40;;;5.80;99.90;;;;;;5045599;28;20087;-65
2023/03/11 11:40:13;;;;;;;6.07;1.17;;;5.80;99.90;;;;;;5030283;28;20038;-65
2023/03/11 11:42:49;;;;;;;4.40;1.25;;;5.80;99.90;;;;;;5035101;28;20096;-65
2023/03/11 11:45:26;;;;;;;5.70;1.33;;;5.80;99.90;;;;;;5028958;28;20034;-65
2023/03/11 11:47:56;;;;;;;5.90;1.17;;;5.70;99.90;;;;;;5025920;28;20038;-65
2023/03/11 11:50:34;;;;;;;3.33;1.33;;;5.80;99.90;;;;;;5029181;28;20413;-65
2023/03/11 11:53:29;;;;;;;3.95;0.93;;;5.90;99.90;;;;;;5030326;28;20408;-65
2023/03/11 11:55:55;;;;;;;1.85;1.08;;;6.00;99.90;;;;;;5044677;28;20379;-65
2023/03/11 11:58:21;;;;;;;4.85;1.17;;;6.00;99.90;;;;;;5028142;28;20053;-65
2023/03/11 12:01:14;;;;;;;4.97;1.10;;;6.00;99.90;;;;;;5026737;28;20087;-65
2023/03/11 12:04:04;;;;;;;2.60;0.88;;;6.00;99.90;;;;;;5026395;28;20037;-66
2023/03/11 12:06:34;;;;;;;4.80;1.00;;;6.10;99.90;;;;;;5017736;28;20053;-65
2023/03/11 12:09:23;;;;;;;2.13;0.73;;;6.10;99.90;;;;;;5046697;28;20036;-66
2023/03/11 12:12:07;;;;;;;3.17;1.00;;;6.10;99.90;;;;;;5014702;28;20048;-66
2023/03/11 12:15:00;;;;;;;2.35;0.82;;;6.10;99.90;;;;;;5040717;28;20033;-66
2023/03/11 12:17:28;;;;;;;4.50;0.93;;;6.20;99.90;;;;;;5030873;28;20045;-65
2023/03/11 12:20:00;;;;;;;4.10;0.90;;;6.20;99.90;;;;;;5034229;28;20043;-65
2023/03/11 12:22:58;;;;;;;5.35;0.90;;;6.30;99.90;;;;;;5026685;28;20533;-64
2023/03/11 12:25:31;;;;;;;4.47;1.02;;;6.20;99.90;;;;;;5008587;28;20045;-65
2023/03/11 12:28:29;;;;;;;4.65;1.00;;;6.20;99.90;;;;;;5028670;28;20124;-64
2023/03/11 12:31:01;;;;;;;3.72;1.10;;;6.20;99.90;;;;;;5033191;28;20087;-64
2023/03/11 12:33:36;;;;;;;2.35;0.90;;;6.20;99.90;;;;;;5035408;28;20049;-64
2023/03/11 12:36:04;;;;;;;4.97;1.00;;;6.30;99.90;;;;;;5014739;28;20042;-64
2023/03/11 12:38:34;;;;;;;2.20;1.05;;;6.40;99.90;;;;;;5030243;28;20084;-64
2023/03/11 12:41:26;;;;;;;5.57;1.20;;;6.40;99.90;;;;;;5032832;28;20041;-64
2023/03/11 12:43:51;;;;;;;3.97;1.00;;;6.30;99.90;;;;;;5029676;28;20061;-63
2023/03/11 12:46:18;;;;;;;4.43;1.08;;;6.20;99.90;;;;;;5044230;28;20068;-63
2023/03/11 12:48:48;;;;;;;4.57;0.90;;;6.20;99.90;;;;;;5037474;28;20046;-63
2023/03/11 12:51:26;;;;;;;3.53;1.17;;;6.20;99.90;;;;;;5039922;28;20448;-61
2023/03/11 12:53:53;;;;;;;3.67;0.80;;;6.20;99.90;;;;;;5033361;28;20478;-62
2023/03/11 12:56:33;;;;;;;5.35;0.90;;;6.30;99.90;;;;;;5044892;28;20052;-62
2023/03/11 12:59:31;;;;;;;1.95;0.93;;;6.30;99.90;;;;;;5028832;28;20041;-62
2023/03/11 13:02:08;;;;;;;3.97;0.90;;;6.30;99.90;;;;;;5002734;28;20130;-63
2023/03/11 13:04:55;;;;;;;1.58;0.90;;;6.30;99.90;;;;;;5031061;28;20486;-62
2023/03/11 13:07:42;;;;;;;3.42;1.05;;;6.30;99.90;;;;;;5030030;28;20479;-63